sensor_id;sensor_type;location;lat;lon;timestamp;P1;durP1;ratioP1;P2;durP2;ratioP2
19235;SDS011;9752;54.270;12.470;2022-09-25T00:04:38;28.00;;;24.17;;
19235;SDS011;9752;54.270;12.470;2022-09-25T00:09:41;23.23;;;20.77;;
19235;SDS011;9752;54.270;12.470;2022-09-25T00:14:43;25.03;;;20.23;;
19235;SDS011;9752;54.270;12.470;2022-09-25T00:19:44;27.93;;;24.93;;
19235;SDS011;9752;54.270;12.470;2022-09-25T00:24:53;29.17;;;25.63;;
19235;SDS011;9752;54.270;12.470;2022-09-25T00:29:55;29.80;;;25.33;;
19235;SDS011;9752;54.270;12.470;2022-09-25T00:34:58;26.83;;;24.03;;
19235;SDS011;9752;54.270;12.470;2022-09-25T00:40:02;26.77;;;24.10;;
19235;SDS011;9752;54.270;12.470;2022-09-25T00:45:04;27.60;;;24.10;;
19235;SDS011;9752;54.270;12.470;2022-09-25T00:50:11;28.40;;;25.57;;
19235;SDS011;9752;54.270;12.470;2022-09-25T00:55:20;26.20;;;23.50;;
19235;SDS011;9752;54.270;12.470;2022-09-25T01:00:23;27.97;;;23.50;;
19235;SDS011;9752;54.270;12.470;2022-09-25T01:05:25;28.70;;;25.57;;
19235;SDS011;9752;54.270;12.470;2022-09-25T01:10:30;28.83;;;25.17;;
19235;SDS011;9752;54.270;12.470;2022-09-25T01:15:35;26.83;;;24.13;;
19235;SDS011;9752;54.270;12.470;2022-09-25T01:20:48;39.80;;;27.07;;
19235;SDS011;9752;54.270;12.470;2022-09-25T01:26:12;28.47;;;24.33;;
19235;SDS011;9752;54.270;12.470;2022-09-25T01:31:29;30.17;;;25.83;;
19235;SDS011;9752;54.270;12.470;2022-09-25T01:36:35;33.67;;;27.47;;
19235;SDS011;9752;54.270;12.470;2022-09-25T01:41:42;35.60;;;29.70;;
19235;SDS011;9752;54.270;12.470;2022-09-25T01:46:49;30.23;;;25.40;;
19235;SDS011;9752;54.270;12.470;2022-09-25T01:51:52;31.07;;;27.43;;
19235;SDS011;9752;54.270;12.470;2022-09-25T01:56:57;39.97;;;27.93;;
19235;SDS011;9752;54.270;12.470;2022-09-25T02:02:05;33.80;;;27.07;;
19235;SDS011;9752;54.270;12.470;2022-09-25T02:07:14;33.33;;;28.17;;
19235;SDS011;9752;54.270;12.470;2022-09-25T02:12:21;29.97;;;25.93;;
19235;SDS011;9752;54.270;12.470;2022-09-25T02:17:29;27.90;;;23.07;;
19235;SDS011;9752;54.270;12.470;2022-09-25T02:22:52;27.80;;;23.90;;
19235;SDS011;9752;54.270;12.470;2022-09-25T02:27:55;31.77;;;26.97;;
19235;SDS011;9752;54.270;12.470;2022-09-25T02:32:58;30.77;;;24.13;;
19235;SDS011;9752;54.270;12.470;2022-09-25T02:38:00;26.20;;;22.93;;
19235;SDS011;9752;54.270;12.470;2022-09-25T02:43:06;32.37;;;27.10;;
19235;SDS011;9752;54.270;12.470;2022-09-25T02:48:17;28.43;;;25.30;;
19235;SDS011;9752;54.270;12.470;2022-09-25T02:53:26;27.90;;;24.87;;
19235;SDS011;9752;54.270;12.470;2022-09-25T02:58:38;25.93;;;23.27;;
19235;SDS011;9752;54.270;12.470;2022-09-25T03:03:43;24.30;;;21.70;;
19235;SDS011;9752;54.270;12.470;2022-09-25T03:08:48;29.23;;;26.13;;
19235;SDS011;9752;54.270;12.470;2022-09-25T03:13:54;30.83;;;27.37;;
19235;SDS011;9752;54.270;12.470;2022-09-25T03:18:58;29.23;;;25.90;;
19235;SDS011;9752;54.270;12.470;2022-09-25T03:24:00;31.73;;;27.00;;
19235;SDS011;9752;54.270;12.470;2022-09-25T03:29:02;31.10;;;26.93;;
19235;SDS011;9752;54.270;12.470;2022-09-25T03:34:05;34.63;;;30.57;;
19235;SDS011;9752;54.270;12.470;2022-09-25T03:39:07;29.73;;;25.70;;
19235;SDS011;9752;54.270;12.470;2022-09-25T03:44:10;35.53;;;29.13;;
19235;SDS011;9752;54.270;12.470;2022-09-25T03:49:13;37.77;;;30.37;;
19235;SDS011;9752;54.270;12.470;2022-09-25T03:54:15;29.57;;;26.43;;
19235;SDS011;9752;54.270;12.470;2022-09-25T03:59:16;36.10;;;29.00;;
19235;SDS011;9752;54.270;12.470;2022-09-25T04:04:19;36.67;;;29.40;;
19235;SDS011;9752;54.270;12.470;2022-09-25T04:09:21;36.40;;;30.43;;
19235;SDS011;9752;54.270;12.470;2022-09-25T04:14:23;34.53;;;30.13;;
19235;SDS011;9752;54.270;12.470;2022-09-25T04:19:26;35.30;;;29.30;;
19235;SDS011;9752;54.270;12.470;2022-09-25T04:24:28;37.67;;;30.03;;
19235;SDS011;9752;54.270;12.470;2022-09-25T04:29:47;46.20;;;34.33;;
19235;SDS011;9752;54.270;12.470;2022-09-25T04:34:51;42.23;;;32.80;;
19235;SDS011;9752;54.270;12.470;2022-09-25T04:39:52;44.00;;;31.67;;
19235;SDS011;9752;54.270;12.470;2022-09-25T04:44:55;39.20;;;32.53;;
19235;SDS011;9752;54.270;12.470;2022-09-25T04:49:59;44.17;;;32.93;;
19235;SDS011;9752;54.270;12.470;2022-09-25T04:55:01;44.53;;;34.77;;
19235;SDS011;9752;54.270;12.470;2022-09-25T05:00:03;47.47;;;34.43;;
19235;SDS011;9752;54.270;12.470;2022-09-25T05:05:08;46.00;;;33.40;;
19235;SDS011;9752;54.270;12.470;2022-09-25T05:10:10;39.03;;;31.37;;
19235;SDS011;9752;54.270;12.470;2022-09-25T05:15:12;44.30;;;33.60;;
19235;SDS011;9752;54.270;12.470;2022-09-25T05:20:16;38.43;;;29.57;;
19235;SDS011;9752;54.270;12.470;2022-09-25T05:25:17;47.27;;;33.77;;
19235;SDS011;9752;54.270;12.470;2022-09-25T05:30:22;48.93;;;35.37;;
19235;SDS011;9752;54.270;12.470;2022-09-25T05:35:26;49.40;;;35.47;;
19235;SDS011;9752;54.270;12.470;2022-09-25T05:40:29;51.73;;;37.47;;
19235;SDS011;9752;54.270;12.470;2022-09-25T05:45:31;40.70;;;31.73;;
19235;SDS011;9752;54.270;12.470;2022-09-25T05:50:35;42.93;;;33.57;;
19235;SDS011;9752;54.270;12.470;2022-09-25T05:55:36;45.40;;;36.30;;
19235;SDS011;9752;54.270;12.470;2022-09-25T06:00:38;43.43;;;34.30;;
19235;SDS011;9752;54.270;12.470;2022-09-25T06:05:41;52.77;;;37.53;;
19235;SDS011;9752;54.270;12.470;2022-09-25T06:10:49;52.73;;;37.80;;
19235;SDS011;9752;54.270;12.470;2022-09-25T06:15:53;37.27;;;29.10;;
19235;SDS011;9752;54.270;12.470;2022-09-25T06:20:59;36.10;;;30.63;;
19235;SDS011;9752;54.270;12.470;2022-09-25T06:26:03;46.63;;;35.27;;
19235;SDS011;9752;54.270;12.470;2022-09-25T06:31:06;41.30;;;32.80;;
19235;SDS011;9752;54.270;12.470;2022-09-25T06:36:10;35.97;;;28.57;;
19235;SDS011;9752;54.270;12.470;2022-09-25T06:41:12;45.30;;;33.03;;
19235;SDS011;9752;54.270;12.470;2022-09-25T06:46:13;40.10;;;31.77;;
19235;SDS011;9752;54.270;12.470;2022-09-25T06:51:18;43.93;;;32.50;;
19235;SDS011;9752;54.270;12.470;2022-09-25T06:56:20;41.30;;;31.57;;
19235;SDS011;9752;54.270;12.470;2022-09-25T07:01:22;36.57;;;28.33;;
19235;SDS011;9752;54.270;12.470;2022-09-25T07:06:25;30.17;;;25.50;;
19235;SDS011;9752;54.270;12.470;2022-09-25T07:11:30;31.70;;;27.33;;
19235;SDS011;9752;54.270;12.470;2022-09-25T07:16:32;37.40;;;30.03;;
19235;SDS011;9752;54.270;12.470;2022-09-25T07:21:35;38.00;;;30.63;;
19235;SDS011;9752;54.270;12.470;2022-09-25T07:26:36;37.20;;;30.53;;
19235;SDS011;9752;54.270;12.470;2022-09-25T07:31:41;36.17;;;29.53;;
19235;SDS011;9752;54.270;12.470;2022-09-25T07:36:45;35.90;;;29.70;;
19235;SDS011;9752;54.270;12.470;2022-09-25T07:41:46;29.17;;;25.93;;
19235;SDS011;9752;54.270;12.470;2022-09-25T07:46:48;32.00;;;27.37;;
19235;SDS011;9752;54.270;12.470;2022-09-25T07:51:51;30.87;;;25.53;;
19235;SDS011;9752;54.270;12.470;2022-09-25T07:56:53;27.00;;;23.90;;
19235;SDS011;9752;54.270;12.470;2022-09-25T08:01:54;29.70;;;25.93;;
19235;SDS011;9752;54.270;12.470;2022-09-25T08:06:58;24.03;;;21.60;;
19235;SDS011;9752;54.270;12.470;2022-09-25T08:12:01;24.50;;;22.00;;
19235;SDS011;9752;54.270;12.470;2022-09-25T08:17:02;27.57;;;24.67;;
19235;SDS011;9752;54.270;12.470;2022-09-25T08:22:05;26.93;;;23.83;;
19235;SDS011;9752;54.270;12.470;2022-09-25T08:27:07;22.00;;;19.13;;
19235;SDS011;9752;54.270;12.470;2022-09-25T08:32:09;18.83;;;16.93;;
19235;SDS011;9752;54.270;12.470;2022-09-25T08:37:12;19.47;;;17.60;;
19235;SDS011;9752;54.270;12.470;2022-09-25T08:42:17;21.13;;;18.97;;
19235;SDS011;9752;54.270;12.470;2022-09-25T08:47:23;20.23;;;18.13;;
19235;SDS011;9752;54.270;12.470;2022-09-25T08:52:45;20.60;;;18.50;;
19235;SDS011;9752;54.270;12.470;2022-09-25T08:57:50;18.67;;;16.87;;
19235;SDS011;9752;54.270;12.470;2022-09-25T09:02:53;19.63;;;17.53;;
19235;SDS011;9752;54.270;12.470;2022-09-25T09:07:58;20.23;;;18.13;;
19235;SDS011;9752;54.270;12.470;2022-09-25T09:13:05;21.03;;;18.83;;
19235;SDS011;9752;54.270;12.470;2022-09-25T09:18:18;17.93;;;16.23;;
19235;SDS011;9752;54.270;12.470;2022-09-25T09:23:29;16.47;;;14.87;;
19235;SDS011;9752;54.270;12.470;2022-09-25T09:28:41;20.23;;;18.13;;
19235;SDS011;9752;54.270;12.470;2022-09-25T09:34:02;21.17;;;19.10;;
19235;SDS011;9752;54.270;12.470;2022-09-25T09:39:27;17.20;;;15.47;;
19235;SDS011;9752;54.270;12.470;2022-09-25T09:44:41;16.03;;;13.97;;
19235;SDS011;9752;54.270;12.470;2022-09-25T09:49:52;22.30;;;19.07;;
19235;SDS011;9752;54.270;12.470;2022-09-25T09:54:59;17.20;;;14.70;;
19235;SDS011;9752;54.270;12.470;2022-09-25T10:00:06;18.13;;;15.90;;
19235;SDS011;9752;54.270;12.470;2022-09-25T10:05:17;17.47;;;15.73;;
19235;SDS011;9752;54.270;12.470;2022-09-25T10:10:28;18.00;;;15.87;;
19235;SDS011;9752;54.270;12.470;2022-09-25T10:15:35;17.17;;;15.40;;
19235;SDS011;9752;54.270;12.470;2022-09-25T10:20:42;14.37;;;13.03;;
19235;SDS011;9752;54.270;12.470;2022-09-25T10:25:48;19.40;;;16.67;;
19235;SDS011;9752;54.270;12.470;2022-09-25T10:30:50;21.03;;;16.20;;
19235;SDS011;9752;54.270;12.470;2022-09-25T10:35:52;18.63;;;16.80;;
19235;SDS011;9752;54.270;12.470;2022-09-25T10:40:58;19.80;;;17.90;;
19235;SDS011;9752;54.270;12.470;2022-09-25T10:46:04;16.67;;;15.03;;
19235;SDS011;9752;54.270;12.470;2022-09-25T10:51:08;17.87;;;16.00;;
19235;SDS011;9752;54.270;12.470;2022-09-25T10:56:14;18.23;;;16.43;;
19235;SDS011;9752;54.270;12.470;2022-09-25T11:01:19;16.07;;;14.47;;
19235;SDS011;9752;54.270;12.470;2022-09-25T11:06:23;16.47;;;14.97;;
19235;SDS011;9752;54.270;12.470;2022-09-25T11:11:27;15.57;;;14.17;;
19235;SDS011;9752;54.270;12.470;2022-09-25T11:16:45;16.23;;;14.73;;
19235;SDS011;9752;54.270;12.470;2022-09-25T11:21:51;15.23;;;13.83;;
19235;SDS011;9752;54.270;12.470;2022-09-25T11:27:01;15.70;;;14.20;;
19235;SDS011;9752;54.270;12.470;2022-09-25T11:32:12;16.47;;;14.87;;
19235;SDS011;9752;54.270;12.470;2022-09-25T11:37:21;15.77;;;14.17;;
19235;SDS011;9752;54.270;12.470;2022-09-25T11:42:29;17.93;;;16.13;;
19235;SDS011;9752;54.270;12.470;2022-09-25T11:47:37;16.17;;;14.53;;
19235;SDS011;9752;54.270;12.470;2022-09-25T11:52:45;15.90;;;14.50;;
19235;SDS011;9752;54.270;12.470;2022-09-25T11:58:02;15.03;;;13.60;;
19235;SDS011;9752;54.270;12.470;2022-09-25T12:03:21;18.20;;;14.40;;
19235;SDS011;9752;54.270;12.470;2022-09-25T12:08:35;14.23;;;13.03;;
19235;SDS011;9752;54.270;12.470;2022-09-25T12:13:50;13.70;;;12.40;;
19235;SDS011;9752;54.270;12.470;2022-09-25T12:19:04;14.70;;;13.43;;
19235;SDS011;9752;54.270;12.470;2022-09-25T12:24:18;14.40;;;13.10;;
19235;SDS011;9752;54.270;12.470;2022-09-25T12:29:45;15.50;;;14.20;;
19235;SDS011;9752;54.270;12.470;2022-09-25T12:35:03;16.27;;;14.77;;
19235;SDS011;9752;54.270;12.470;2022-09-25T12:40:18;16.20;;;14.57;;
19235;SDS011;9752;54.270;12.470;2022-09-25T12:45:28;16.73;;;14.23;;
19235;SDS011;9752;54.270;12.470;2022-09-25T12:50:35;13.10;;;11.90;;
19235;SDS011;9752;54.270;12.470;2022-09-25T12:55:44;15.13;;;13.63;;
19235;SDS011;9752;54.270;12.470;2022-09-25T13:00:53;14.13;;;12.83;;
19235;SDS011;9752;54.270;12.470;2022-09-25T13:06:01;15.93;;;14.43;;
19235;SDS011;9752;54.270;12.470;2022-09-25T13:11:09;14.90;;;13.60;;
19235;SDS011;9752;54.270;12.470;2022-09-25T13:16:18;18.13;;;16.37;;
19235;SDS011;9752;54.270;12.470;2022-09-25T13:21:21;19.67;;;15.70;;
19235;SDS011;9752;54.270;12.470;2022-09-25T13:26:25;14.63;;;13.33;;
19235;SDS011;9752;54.270;12.470;2022-09-25T13:31:29;14.37;;;11.40;;
19235;SDS011;9752;54.270;12.470;2022-09-25T13:36:34;14.77;;;13.10;;
19235;SDS011;9752;54.270;12.470;2022-09-25T13:41:45;13.47;;;12.17;;
19235;SDS011;9752;54.270;12.470;2022-09-25T13:46:51;14.50;;;13.00;;
19235;SDS011;9752;54.270;12.470;2022-09-25T13:58:16;14.63;;;12.17;;
19235;SDS011;9752;54.270;12.470;2022-09-25T14:03:28;14.17;;;12.87;;
19235;SDS011;9752;54.270;12.470;2022-09-25T14:08:37;15.73;;;14.30;;
19235;SDS011;9752;54.270;12.470;2022-09-25T14:13:41;13.90;;;12.60;;
19235;SDS011;9752;54.270;12.470;2022-09-25T14:18:46;13.37;;;12.17;;
19235;SDS011;9752;54.270;12.470;2022-09-25T14:23:50;14.63;;;13.13;;
19235;SDS011;9752;54.270;12.470;2022-09-25T14:28:53;16.67;;;12.70;;
19235;SDS011;9752;54.270;12.470;2022-09-25T14:34:02;14.67;;;13.37;;
19235;SDS011;9752;54.270;12.470;2022-09-25T14:39:24;14.97;;;13.63;;
19235;SDS011;9752;54.270;12.470;2022-09-25T14:44:34;17.30;;;15.70;;
19235;SDS011;9752;54.270;12.470;2022-09-25T14:49:52;17.20;;;15.60;;
19235;SDS011;9752;54.270;12.470;2022-09-25T14:54:54;16.80;;;15.20;;
19235;SDS011;9752;54.270;12.470;2022-09-25T15:00:01;16.73;;;15.03;;
19235;SDS011;9752;54.270;12.470;2022-09-25T15:05:17;16.97;;;15.27;;
19235;SDS011;9752;54.270;12.470;2022-09-25T15:10:31;17.27;;;15.53;;
19235;SDS011;9752;54.270;12.470;2022-09-25T15:15:34;17.77;;;15.03;;
19235;SDS011;9752;54.270;12.470;2022-09-25T15:20:46;18.23;;;16.33;;
19235;SDS011;9752;54.270;12.470;2022-09-25T15:25:49;17.60;;;15.77;;
19235;SDS011;9752;54.270;12.470;2022-09-25T15:30:54;18.50;;;16.57;;
19235;SDS011;9752;54.270;12.470;2022-09-25T15:35:59;19.97;;;17.80;;
19235;SDS011;9752;54.270;12.470;2022-09-25T15:41:05;21.40;;;19.07;;
19235;SDS011;9752;54.270;12.470;2022-09-25T15:51:37;21.17;;;19.00;;
19235;SDS011;9752;54.270;12.470;2022-09-25T15:56:43;22.50;;;19.33;;
19235;SDS011;9752;54.270;12.470;2022-09-25T16:01:47;18.33;;;16.43;;
19235;SDS011;9752;54.270;12.470;2022-09-25T16:07:21;20.93;;;18.43;;
19235;SDS011;9752;54.270;12.470;2022-09-25T16:12:29;19.53;;;16.83;;
19235;SDS011;9752;54.270;12.470;2022-09-25T16:17:36;22.37;;;18.77;;
19235;SDS011;9752;54.270;12.470;2022-09-25T16:22:45;21.47;;;17.70;;
19235;SDS011;9752;54.270;12.470;2022-09-25T16:27:50;25.17;;;20.47;;
19235;SDS011;9752;54.270;12.470;2022-09-25T16:32:53;24.20;;;20.27;;
19235;SDS011;9752;54.270;12.470;2022-09-25T16:37:59;24.27;;;21.37;;
19235;SDS011;9752;54.270;12.470;2022-09-25T16:43:02;23.13;;;20.77;;
19235;SDS011;9752;54.270;12.470;2022-09-25T16:53:29;29.07;;;23.63;;
19235;SDS011;9752;54.270;12.470;2022-09-25T16:58:32;25.53;;;22.73;;
19235;SDS011;9752;54.270;12.470;2022-09-25T17:03:36;24.73;;;21.27;;
19235;SDS011;9752;54.270;12.470;2022-09-25T17:08:51;25.53;;;21.73;;
19235;SDS011;9752;54.270;12.470;2022-09-25T17:13:53;21.97;;;19.63;;
19235;SDS011;9752;54.270;12.470;2022-09-25T17:18:55;29.13;;;22.33;;
19235;SDS011;9752;54.270;12.470;2022-09-25T17:23:58;27.10;;;23.30;;
19235;SDS011;9752;54.270;12.470;2022-09-25T17:29:00;32.87;;;26.07;;
19235;SDS011;9752;54.270;12.470;2022-09-25T17:34:03;27.40;;;24.47;;
19235;SDS011;9752;54.270;12.470;2022-09-25T17:39:12;29.13;;;24.30;;
19235;SDS011;9752;54.270;12.470;2022-09-25T17:44:14;27.90;;;24.10;;
19235;SDS011;9752;54.270;12.470;2022-09-25T17:49:19;25.87;;;22.43;;
19235;SDS011;9752;54.270;12.470;2022-09-25T17:54:23;25.50;;;22.70;;
19235;SDS011;9752;54.270;12.470;2022-09-25T17:59:26;30.10;;;25.00;;
19235;SDS011;9752;54.270;12.470;2022-09-25T18:04:28;30.67;;;27.00;;
19235;SDS011;9752;54.270;12.470;2022-09-25T18:09:31;34.37;;;27.00;;
19235;SDS011;9752;54.270;12.470;2022-09-25T18:14:32;31.90;;;26.57;;
19235;SDS011;9752;54.270;12.470;2022-09-25T18:19:34;33.63;;;26.87;;
19235;SDS011;9752;54.270;12.470;2022-09-25T18:24:54;31.70;;;26.93;;
19235;SDS011;9752;54.270;12.470;2022-09-25T18:29:58;30.93;;;27.63;;
19235;SDS011;9752;54.270;12.470;2022-09-25T18:35:00;29.90;;;26.57;;
19235;SDS011;9752;54.270;12.470;2022-09-25T18:40:03;33.30;;;27.67;;
19235;SDS011;9752;54.270;12.470;2022-09-25T18:45:07;31.60;;;27.80;;
19235;SDS011;9752;54.270;12.470;2022-09-25T18:50:11;34.13;;;27.90;;
19235;SDS011;9752;54.270;12.470;2022-09-25T18:55:15;32.07;;;28.07;;
19235;SDS011;9752;54.270;12.470;2022-09-25T19:00:17;33.87;;;29.07;;
19235;SDS011;9752;54.270;12.470;2022-09-25T19:05:19;39.40;;;30.73;;
19235;SDS011;9752;54.270;12.470;2022-09-25T19:10:23;36.67;;;29.63;;
19235;SDS011;9752;54.270;12.470;2022-09-25T19:15:24;27.57;;;23.43;;
19235;SDS011;9752;54.270;12.470;2022-09-25T19:20:27;21.77;;;19.40;;
19235;SDS011;9752;54.270;12.470;2022-09-25T19:25:31;20.77;;;17.20;;
19235;SDS011;9752;54.270;12.470;2022-09-25T19:30:33;18.50;;;16.67;;
19235;SDS011;9752;54.270;12.470;2022-09-25T19:35:35;21.70;;;18.13;;
19235;SDS011;9752;54.270;12.470;2022-09-25T19:40:38;22.63;;;19.13;;
19235;SDS011;9752;54.270;12.470;2022-09-25T19:45:46;23.87;;;21.10;;
19235;SDS011;9752;54.270;12.470;2022-09-25T19:50:49;19.87;;;16.07;;
19235;SDS011;9752;54.270;12.470;2022-09-25T19:55:52;10.23;;;6.37;;
19235;SDS011;9752;54.270;12.470;2022-09-25T20:00:54;5.93;;;4.07;;
19235;SDS011;9752;54.270;12.470;2022-09-25T20:05:59;4.80;;;3.70;;
19235;SDS011;9752;54.270;12.470;2022-09-25T20:11:09;6.93;;;3.10;;
19235;SDS011;9752;54.270;12.470;2022-09-25T20:16:13;5.53;;;3.43;;
19235;SDS011;9752;54.270;12.470;2022-09-25T20:21:16;6.63;;;2.93;;
19235;SDS011;9752;54.270;12.470;2022-09-25T20:26:22;4.87;;;3.20;;
19235;SDS011;9752;54.270;12.470;2022-09-25T20:31:24;5.63;;;3.00;;
19235;SDS011;9752;54.270;12.470;2022-09-25T20:36:27;2.90;;;2.40;;
19235;SDS011;9752;54.270;12.470;2022-09-25T20:41:30;6.07;;;2.53;;
19235;SDS011;9752;54.270;12.470;2022-09-25T20:46:33;7.13;;;2.90;;
19235;SDS011;9752;54.270;12.470;2022-09-25T20:51:35;5.83;;;3.00;;
19235;SDS011;9752;54.270;12.470;2022-09-25T20:56:38;4.07;;;3.30;;
19235;SDS011;9752;54.270;12.470;2022-09-25T21:01:42;6.57;;;3.27;;
19235;SDS011;9752;54.270;12.470;2022-09-25T21:06:45;7.70;;;3.60;;
19235;SDS011;9752;54.270;12.470;2022-09-25T21:11:48;3.87;;;2.93;;
19235;SDS011;9752;54.270;12.470;2022-09-25T21:16:50;6.13;;;3.20;;
19235;SDS011;9752;54.270;12.470;2022-09-25T21:21:52;3.23;;;2.93;;
19235;SDS011;9752;54.270;12.470;2022-09-25T21:26:55;6.70;;;3.63;;
19235;SDS011;9752;54.270;12.470;2022-09-25T21:31:57;7.20;;;4.60;;
19235;SDS011;9752;54.270;12.470;2022-09-25T21:37:00;5.27;;;4.87;;
19235;SDS011;9752;54.270;12.470;2022-09-25T21:42:03;8.00;;;3.80;;
19235;SDS011;9752;54.270;12.470;2022-09-25T21:47:05;5.10;;;4.67;;
19235;SDS011;9752;54.270;12.470;2022-09-25T21:52:07;6.00;;;5.00;;
19235;SDS011;9752;54.270;12.470;2022-09-25T21:57:10;11.37;;;6.57;;
19235;SDS011;9752;54.270;12.470;2022-09-25T22:02:12;11.40;;;7.87;;
19235;SDS011;9752;54.270;12.470;2022-09-25T22:07:14;11.27;;;8.10;;
19235;SDS011;9752;54.270;12.470;2022-09-25T22:12:17;12.43;;;9.67;;
19235;SDS011;9752;54.270;12.470;2022-09-25T22:17:18;14.03;;;10.00;;
19235;SDS011;9752;54.270;12.470;2022-09-25T22:22:20;14.20;;;10.70;;
19235;SDS011;9752;54.270;12.470;2022-09-25T22:27:23;17.90;;;11.33;;
19235;SDS011;9752;54.270;12.470;2022-09-25T22:32:25;14.77;;;10.93;;
19235;SDS011;9752;54.270;12.470;2022-09-25T22:37:27;15.70;;;10.10;;
19235;SDS011;9752;54.270;12.470;2022-09-25T22:42:31;16.33;;;9.87;;
19235;SDS011;9752;54.270;12.470;2022-09-25T22:47:32;14.33;;;9.30;;
19235;SDS011;9752;54.270;12.470;2022-09-25T22:52:34;15.63;;;8.37;;
19235;SDS011;9752;54.270;12.470;2022-09-25T22:57:37;15.33;;;8.40;;
19235;SDS011;9752;54.270;12.470;2022-09-25T23:02:39;13.63;;;7.37;;
19235;SDS011;9752;54.270;12.470;2022-09-25T23:07:41;9.40;;;5.40;;
19235;SDS011;9752;54.270;12.470;2022-09-25T23:12:44;7.43;;;4.50;;
19235;SDS011;9752;54.270;12.470;2022-09-25T23:17:46;12.33;;;4.90;;
19235;SDS011;9752;54.270;12.470;2022-09-25T23:22:47;7.90;;;4.00;;
19235;SDS011;9752;54.270;12.470;2022-09-25T23:27:50;9.10;;;4.73;;
19235;SDS011;9752;54.270;12.470;2022-09-25T23:32:52;9.60;;;4.57;;
19235;SDS011;9752;54.270;12.470;2022-09-25T23:37:54;9.57;;;3.83;;
19235;SDS011;9752;54.270;12.470;2022-09-25T23:42:57;8.27;;;4.30;;
19235;SDS011;9752;54.270;12.470;2022-09-25T23:48:00;8.07;;;4.50;;
19235;SDS011;9752;54.270;12.470;2022-09-25T23:53:02;8.40;;;3.90;;
19235;SDS011;9752;54.270;12.470;2022-09-25T23:58:05;6.23;;;3.60;;
